Accueil
METAR-TAF:

METAR-TAF

Aéroports :

Boca Raton, Floride, États-Unis

latitude: 26-22-43N, longitude: 080-06-28W, altitude: 4 m

Observation

Le bulletin a été fait il y a 5 heures et 59 minutes, à 02:47 UTC
Vent 8 kt de est/sud-est
Température 27°C
Humidité 84%
Pression 1019 hPa
Visibilité: 16.1 km
Quelques nuages à une hauteur de 1800 ft
orage à proximité

METAR: KBCT 290247Z 12008KT 10SM VCTS FEW018 27/24 A3009 RMK LAST

Heure: 04:46 (08:46 UTC)


TAF: absent

Observations et prévisions météorologiques de plus de 4000 aéroports (messages METAR et TAF).

Les stations disponibles sont représentées par des disques jaunes et rouges sur la carte.

Passer la souris dessus pour voir le nom de la station.

Cliquer dessus pour voir les observations et prévisions météorologiques.

Pour changer de carte: cliquez sur les boutons verts avec une croix noire pour zoomer, sur le bouton vert avec un tiret pour effectuer un zoom arrière, ou sur les flèches vertes pour les cartes adjacentes.


METAR-TAF: